Terminal Aerodrome Forecast
Issued by NWS

Home | Current Version | Previous Version | Text Only | Print | Product List | Glossary On
Versions: 1 2 3 4 5 6 7 8 9 10 11 12 13 14 15 16 17 18
509
FTUS41 KPBZ 232321
TAFDUJ
TAF
KDUJ 232321Z 2400/2424 12004KT P6SM FEW250
     FM240600 15006KT P6SM BKN120 WS020/19035KT
      TEMPO 2409/2412 5SM -SHRA OVC050
     FM241300 18007KT P6SM OVC025
     FM241900 23011KT P6SM BKN015=

USA.gov is the U.S. government's official web portal to all federal, state and local government web resources and services.